Time;durP1;ratioP1;P1;durP2;ratioP2;P2;SDS_P1;SDS_P2;PMS_P1;PMS_P2;Temp;Humidity;BMP_temperature;BMP_pressure;BME280_temperature;BME280_humidity;BME280_pressure;Samples;Min_cycle;Max_cycle;Signal;HPM_P1;HPM_P2
2023/02/19 00:01:35;;;;;;;13.40;6.20;;;;;;;5.06;57.47;99330.06;105382;1256;62421;-53
2023/02/19 00:04:04;;;;;;;7.90;2.80;;;;;;;5.05;57.38;99331.88;105446;1256;64825;-54
2023/02/19 00:06:31;;;;;;;14.90;6.20;;;;;;;5.05;57.33;99327.77;105469;1259;60556;-53
2023/02/19 00:09:04;;;;;;;7.50;3.30;;;;;;;5.05;57.32;99327.56;105461;1259;60567;-53
2023/02/19 00:11:32;;;;;;;6.30;2.20;;;;;;;5.03;57.27;99332.18;105360;1262;66111;-54
2023/02/19 00:14:00;;;;;;;9.90;2.90;;;;;;;4.99;57.23;99332.86;108926;1255;62817;-56
2023/02/19 00:16:35;;;;;;;14.80;5.80;;;;;;;4.98;57.31;99332.41;105346;1259;64880;-55
2023/02/19 00:19:05;;;;;;;5.30;2.20;;;;;;;4.97;57.25;99332.79;105395;1256;61700;-52
2023/02/19 00:21:34;;;;;;;10.80;4.80;;;;;;;4.96;57.24;99335.64;105741;1254;60542;-54
2023/02/19 00:24:02;;;;;;;12.60;2.70;;;;;;;4.96;57.22;99336.20;105319;1259;66051;-54
2023/02/19 00:26:29;;;;;;;10.30;4.70;;;;;;;5.01;57.10;99330.27;105389;1256;62412;-54
2023/02/19 00:28:57;;;;;;;5.20;1.60;;;;;;;5.11;56.92;99333.20;105312;1256;64911;-53
2023/02/19 00:31:24;;;;;;;6.20;2.10;;;;;;;5.21;56.65;99332.12;105279;1256;60364;-54
2023/02/19 00:33:54;;;;;;;9.40;4.40;;;;;;;5.21;56.69;99324.25;105261;1255;60511;-54
2023/02/19 00:36:22;;;;;;;12.40;5.00;;;;;;;5.24;56.60;99324.23;105319;1259;66190;-54
2023/02/19 00:38:49;;;;;;;11.50;4.70;;;;;;;5.22;56.52;99325.76;108024;1255;62388;-54
2023/02/19 00:41:20;;;;;;;5.70;1.90;;;;;;;5.23;56.42;99332.98;105171;1256;63863;-55
2023/02/19 00:43:56;;;;;;;15.60;5.20;;;;;;;5.26;56.40;99330.34;105272;1260;60451;-55
2023/02/19 00:46:27;;;;;;;8.70;1.70;;;;;;;5.23;56.38;99331.40;105294;1258;60624;-56
2023/02/19 00:48:55;;;;;;;9.30;2.70;;;;;;;5.20;56.34;99336.33;105404;1254;64871;-56
2023/02/19 00:51:24;;;;;;;6.70;1.60;;;;;;;5.17;56.31;99339.00;105061;1259;62306;-56
2023/02/19 00:53:51;;;;;;;12.50;4.80;;;;;;;5.12;56.47;99333.82;105332;1259;64967;-55
2023/02/19 00:56:19;;;;;;;11.80;5.10;;;;;;;5.06;56.66;99333.77;105316;1260;60944;-52
2023/02/19 00:58:46;;;;;;;5.40;1.50;;;;;;;5.04;56.78;99339.44;105406;1254;60477;-51
2023/02/19 01:01:13;;;;;;;7.00;1.80;;;;;;;5.00;56.82;99339.04;105337;1258;66053;-55
2023/02/19 01:03:40;;;;;;;8.40;4.70;;;;;;;4.96;56.95;99342.95;105372;1256;62310;-55
2023/02/19 01:06:08;;;;;;;5.80;2.50;;;;;;;4.92;57.03;99343.48;105304;1255;65075;-54
2023/02/19 01:08:36;;;;;;;4.00;1.60;;;;;;;4.86;57.24;99347.03;105372;1255;60487;-55
2023/02/19 01:11:04;;;;;;;5.40;2.40;;;;;;;4.79;57.52;99351.66;105353;1259;60438;-54
2023/02/19 01:13:32;;;;;;;11.10;5.00;;;;;;;4.77;57.65;99355.45;105658;1258;66184;-54
2023/02/19 01:16:04;;;;;;;5.50;2.40;;;;;;;4.75;57.71;99355.27;105429;1258;62762;-54
2023/02/19 01:18:32;;;;;;;5.00;2.20;;;;;;;4.73;57.76;99352.83;105463;1254;64698;-55
2023/02/19 01:21:04;;;;;;;12.10;5.10;;;;;;;4.71;57.90;99358.34;106160;1259;59520;-55
2023/02/19 01:23:35;;;;;;;13.00;4.70;;;;;;;4.71;57.97;99362.84;105229;1258;60439;-54
2023/02/19 01:26:05;;;;;;;6.50;2.80;;;;;;;4.78;57.91;99362.02;105390;1258;65804;-54
2023/02/19 01:28:32;;;;;;;5.20;1.30;;;;;;;4.88;57.78;99366.53;105398;1259;61441;-55
2023/02/19 01:31:03;;;;;;;4.00;1.40;;;;;;;4.96;57.48;99366.96;105157;1259;65060;-54
2023/02/19 01:33:30;;;;;;;10.40;4.80;;;;;;;4.98;57.45;99366.95;105207;1260;60648;-55
2023/02/19 01:35:58;;;;;;;10.50;4.60;;;;;;;4.95;57.40;99361.64;105333;1256;60524;-56
2023/02/19 01:38:25;;;;;;;12.60;4.20;;;;;;;4.96;57.37;99362.30;104886;1259;429333;-56
2023/02/19 01:42:42;;;;;;;7.90;2.30;;;;;;;4.72;58.08;99359.78;102357;1294;601163;-55
2023/02/19 01:45:30;;;;;;;8.30;2.50;;;;;;;4.88;57.77;99365.29;106369;1267;59287;-55
2023/02/19 01:48:20;;;;;;;10.50;4.40;;;;;;;4.88;57.74;99368.41;105138;1264;59359;-55
2023/02/19 01:51:01;;;;;;;6.20;1.50;;;;;;;4.83;57.81;99369.63;104453;1269;64426;-55
2023/02/19 01:53:31;;;;;;;9.70;4.20;;;;;;;4.77;57.92;99374.59;105143;1258;61398;-54
2023/02/19 01:55:59;;;;;;;10.70;2.60;;;;;;;4.68;58.18;99375.26;108700;1256;177228;-56
2023/02/19 01:58:30;;;;;;;12.60;4.90;;;;;;;4.71;58.17;99378.34;109011;1254;57356;-56
2023/02/19 02:01:00;;;;;;;7.70;2.00;;;;;;;4.72;58.14;99376.35;109057;1253;57091;-56
2023/02/19 02:03:28;;;;;;;5.70;2.20;;;;;;;4.71;58.24;99376.27;109007;1256;63852;-56
2023/02/19 02:06:01;;;;;;;6.70;2.10;;;;;;;4.70;58.41;99383.97;109066;1253;62613;-55
2023/02/19 02:11:20;;;;;;;6.70;2.10;;;;;;;4.70;58.46;99388.82;105447;1260;59676;-56
2023/02/19 02:13:51;;;;;;;7.80;1.90;;;;;;;4.76;58.35;99387.64;105405;1260;59660;-55
2023/02/19 02:16:42;;;;;;;10.30;3.40;;;;;;;4.85;58.19;99386.20;106059;1257;65120;-55
2023/02/19 02:19:39;;;;;;;9.90;3.90;;;;;;;4.93;58.15;99393.80;105508;1254;63066;-55
2023/02/19 02:22:18;;;;;;;10.40;4.70;;;;;;;4.96;58.12;99401.92;105288;1256;65060;-55
2023/02/19 02:24:52;;;;;;;5.60;1.50;;;;;;;4.89;58.23;99411.05;105424;1260;59686;-54
2023/02/19 02:28:05;;;;;;;6.20;1.70;;;;;;;4.86;58.24;99406.96;105355;1259;59644;-54
2023/02/19 02:30:47;;;;;;;9.60;3.40;;;;;;;4.89;58.23;99409.38;105214;1257;65377;-55
2023/02/19 02:33:20;;;;;;;8.80;2.20;;;;;;;4.86;58.23;99415.66;105706;1258;70040;-55
2023/02/19 02:36:04;;;;;;;4.50;1.90;;;;;;;4.81;58.39;99419.65;105265;1260;64982;-55
2023/02/19 02:38:38;;;;;;;10.30;4.40;;;;;;;4.75;58.48;99421.30;105410;1260;59672;-55
2023/02/19 02:41:07;;;;;;;4.80;1.60;;;;;;;4.72;58.68;99425.15;105423;1253;59688;-55
2023/02/19 02:43:37;;;;;;;5.90;2.00;;;;;;;4.63;58.98;99424.60;105447;1254;64165;-54
2023/02/19 02:46:05;;;;;;;16.60;3.50;;;;;;;4.63;59.12;99423.17;105408;1253;62677;-55
2023/02/19 02:48:52;;;;;;;9.20;5.00;;;;;;;4.65;59.09;99423.05;105291;1256;64299;-54
2023/02/19 02:51:40;;;;;;;10.80;2.60;;;;;;;4.65;59.18;99423.02;105063;1255;60791;-54
2023/02/19 02:57:08;;;;;;;10.20;3.10;;;;;;;4.59;59.43;99426.97;105473;1257;65261;-54
2023/02/19 02:59:41;;;;;;;8.30;2.10;;;;;;;4.56;59.47;99432.05;105536;1256;62395;-54
2023/02/19 03:02:21;;;;;;;5.40;1.90;;;;;;;4.54;59.62;99438.73;105359;1255;64660;-54
2023/02/19 03:07:59;;;;;;;6.50;1.30;;;;;;;4.71;59.43;99450.23;105382;1256;59746;-54
2023/02/19 03:10:36;;;;;;;6.50;2.00;;;;;;;4.79;59.34;99454.05;105422;1259;65383;-56
2023/02/19 03:21:38;;;;;;;10.90;4.90;;;;;;;4.58;59.73;99466.98;105119;1256;59650;-55
2023/02/19 03:26:58;;;;;;;6.00;2.30;;;;;;;4.41;60.08;99462.03;105092;1260;62721;-56
2023/02/19 03:29:28;;;;;;;11.50;5.40;;;;;;;4.35;60.30;99460.55;105212;1257;65059;-55
2023/02/19 03:32:14;;;;;;;7.90;3.30;;;;;;;4.28;60.57;99464.32;105274;1254;59644;-55
2023/02/19 03:34:48;;;;;;;5.90;2.40;;;;;;;4.21;60.71;99470.00;105384;1255;59717;-55
2023/02/19 03:37:24;;;;;;;5.70;2.40;;;;;;;4.16;60.91;99471.58;105256;1257;65089;-55
2023/02/19 03:39:52;;;;;;;9.20;3.20;;;;;;;4.11;61.10;99472.77;105320;1258;61755;-53
2023/02/19 03:42:28;;;;;;;7.90;2.70;;;;;;;4.05;61.30;99473.50;105195;1257;64750;-54
2023/02/19 03:45:32;;;;;;;5.00;1.90;;;;;;;4.01;61.39;99474.84;105584;1254;59787;-52
2023/02/19 03:48:33;;;;;;;9.20;1.80;;;;;;;4.04;61.39;99480.88;105288;1257;59714;-55
2023/02/19 03:51:14;;;;;;;10.20;4.80;;;;;;;4.12;61.24;99484.38;105257;1255;72890;-55
2023/02/19 03:53:52;;;;;;;9.20;1.90;;;;;;;4.16;61.42;99486.36;106297;1254;62500;-56
2023/02/19 03:56:31;;;;;;;5.40;2.00;;;;;;;4.19;61.41;99493.26;105425;1257;65032;-56
2023/02/19 03:59:29;;;;;;;6.70;2.20;;;;;;;4.19;61.42;99497.09;105405;1258;60799;-56
2023/02/19 04:02:04;;;;;;;12.40;5.00;;;;;;;4.14;61.52;99504.33;105483;1257;59716;-56
2023/02/19 04:05:04;;;;;;;9.40;2.70;;;;;;;4.08;61.71;99505.25;105559;1260;65386;-56
2023/02/19 04:07:35;;;;;;;8.60;3.00;;;;;;;4.01;61.97;99506.40;105459;1260;62350;-55
2023/02/19 04:10:04;;;;;;;6.60;2.00;;;;;;;3.96;62.03;99506.62;105323;1257;65070;-56
2023/02/19 04:12:38;;;;;;;14.40;4.80;;;;;;;3.89;62.24;99501.45;105253;1255;59814;-56
2023/02/19 04:15:09;;;;;;;8.30;2.40;;;;;;;3.84;62.42;99502.48;105463;1260;59830;-55
2023/02/19 04:17:40;;;;;;;9.80;1.80;;;;;;;3.85;62.48;99499.32;105337;1260;65295;-55
2023/02/19 04:20:09;;;;;;;6.70;2.20;;;;;;;3.90;62.54;99502.27;105272;1257;62615;-55
2023/02/19 04:22:37;;;;;;;10.50;4.90;;;;;;;3.94;62.63;99499.94;105298;1256;64935;-56
2023/02/19 04:25:06;;;;;;;5.10;2.10;;;;;;;3.96;62.72;99497.61;105363;1257;59741;-53
2023/02/19 04:27:36;;;;;;;8.00;2.10;;;;;;;3.92;62.75;99495.93;105398;1257;59685;-54
2023/02/19 04:30:11;;;;;;;5.80;2.40;;;;;;;3.89;62.93;99502.66;105308;1259;65599;-54
2023/02/19 04:32:40;;;;;;;11.60;4.90;;;;;;;3.87;63.11;99509.08;105331;1260;61804;-54
2023/02/19 04:35:11;;;;;;;7.50;1.90;;;;;;;3.85;63.23;99514.95;105360;1257;64028;-54
2023/02/19 04:37:41;;;;;;;7.60;2.40;;;;;;;3.75;63.40;99524.45;105588;1254;59597;-53
2023/02/19 04:40:09;;;;;;;4.90;1.90;;;;;;;3.65;63.70;99521.25;105458;1256;59623;-54
2023/02/19 04:42:38;;;;;;;6.70;2.60;;;;;;;3.62;63.77;99522.52;105319;1257;65239;-54
2023/02/19 04:45:07;;;;;;;6.70;2.60;;;;;;;3.61;63.77;99528.47;105311;1256;62786;-54
2023/02/19 04:47:36;;;;;;;6.70;2.70;;;;;;;3.56;63.81;99531.76;105450;1257;64092;-54
2023/02/19 04:50:05;;;;;;;5.40;1.60;;;;;;;3.50;64.10;99529.33;105411;1254;59749;-54
2023/02/19 04:52:34;;;;;;;9.10;4.60;;;;;;;3.51;64.13;99531.52;105615;1256;59636;-53
2023/02/19 04:55:03;;;;;;;5.00;1.60;;;;;;;3.56;64.13;99536.77;105462;1256;65073;-54
2023/02/19 04:57:31;;;;;;;6.00;1.90;;;;;;;3.55;64.41;99541.71;105401;1256;62667;-52
2023/02/19 05:00:00;;;;;;;10.50;4.50;;;;;;;3.57;64.59;99545.21;105375;1258;65093;-53
2023/02/19 05:02:32;;;;;;;7.60;1.50;;;;;;;3.61;64.64;99543.24;105267;1256;59624;-53
2023/02/19 05:05:00;;;;;;;7.50;1.70;;;;;;;3.61;64.78;99543.06;105340;1255;59676;-53
2023/02/19 05:07:29;;;;;;;10.00;5.10;;;;;;;3.60;64.79;99544.02;105410;1259;65201;-53
2023/02/19 05:09:58;;;;;;;6.30;1.90;;;;;;;3.58;64.73;99549.82;105431;1254;62636;-54
2023/02/19 05:12:28;;;;;;;8.70;2.60;;;;;;;3.57;64.72;99564.30;105330;1254;65469;-52
2023/02/19 05:14:58;;;;;;;8.80;2.60;;;;;;;3.59;64.67;99570.05;105332;1257;59554;-53
2023/02/19 05:17:27;;;;;;;10.00;4.80;;;;;;;3.58;64.56;99568.77;105519;1256;59782;-54
2023/02/19 05:19:59;;;;;;;5.30;1.60;;;;;;;3.52;64.63;99569.12;105261;1255;65433;-53
2023/02/19 05:22:28;;;;;;;6.90;1.90;;;;;;;3.48;64.72;99567.82;105491;1255;62417;-54
2023/02/19 05:25:01;;;;;;;5.60;1.70;;;;;;;3.43;64.71;99574.68;105346;1256;64641;-53
2023/02/19 05:27:30;;;;;;;6.60;2.20;;;;;;;3.39;64.82;99575.16;105210;1259;59558;-55
2023/02/19 05:29:58;;;;;;;8.10;2.20;;;;;;;3.34;64.86;99573.86;105343;1257;59545;-54
2023/02/19 05:32:26;;;;;;;7.00;2.00;;;;;;;3.31;64.84;99575.27;105779;1258;65196;-53
2023/02/19 05:34:55;;;;;;;6.10;2.00;;;;;;;3.36;64.84;99574.80;105299;1254;71437;-54
2023/02/19 05:37:23;;;;;;;8.40;3.90;;;;;;;3.44;64.69;99571.52;105342;1256;65074;-54
2023/02/19 05:39:51;;;;;;;4.60;1.90;;;;;;;3.53;64.63;99575.99;105258;1257;59704;-54
2023/02/19 05:42:19;;;;;;;5.60;1.90;;;;;;;3.62;64.45;99578.58;105203;1259;59587;-54
2023/02/19 05:44:52;;;;;;;9.80;4.60;;;;;;;3.68;64.44;99587.02;105380;1259;65411;-53
2023/02/19 05:47:20;;;;;;;3.30;1.00;;;;;;;3.68;64.43;99586.10;105290;1256;62834;-49
2023/02/19 05:49:48;;;;;;;9.40;4.50;;;;;;;3.69;64.54;99591.45;105403;1259;73772;-51
2023/02/19 05:52:17;;;;;;;8.90;3.60;;;;;;;3.70;64.51;99592.09;105646;1254;59631;-52
2023/02/19 05:54:45;;;;;;;5.30;2.20;;;;;;;3.70;64.44;99600.05;105299;1257;59565;-51
2023/02/19 05:57:13;;;;;;;5.20;2.10;;;;;;;3.69;64.47;99598.23;105232;1257;64215;-54
2023/02/19 05:59:42;;;;;;;5.30;2.00;;;;;;;3.68;64.46;99597.21;105396;1258;61559;-52
2023/02/19 06:02:11;;;;;;;10.90;4.70;;;;;;;3.68;64.52;99601.59;105206;1258;64908;-53
2023/02/19 06:04:39;;;;;;;4.10;1.20;;;;;;;3.68;64.44;99600.90;105442;1256;62164;-53
2023/02/19 06:07:07;;;;;;;4.90;1.70;;;;;;;3.73;64.42;99604.17;105405;1256;60458;-54
2023/02/19 06:09:36;;;;;;;5.80;2.90;;;;;;;3.83;64.07;99605.83;105166;1257;74784;-55
2023/02/19 06:12:04;;;;;;;4.90;1.40;;;;;;;3.91;63.95;99609.31;106397;1256;62788;-54
2023/02/19 06:14:34;;;;;;;6.30;1.90;;;;;;;3.98;63.78;99613.91;105186;1259;63739;-55
2023/02/19 06:17:02;;;;;;;7.10;1.60;;;;;;;3.99;63.56;99620.41;105210;1257;60524;-57
2023/02/19 06:19:30;;;;;;;5.30;1.90;;;;;;;3.99;63.48;99619.56;105443;1256;60325;-55
2023/02/19 06:21:58;;;;;;;5.10;1.50;;;;;;;3.98;63.39;99619.58;105420;1258;66120;-53
2023/02/19 06:24:26;;;;;;;12.20;4.70;;;;;;;3.98;63.19;99607.60;105370;1254;62651;-56
2023/02/19 06:26:55;;;;;;;6.50;1.80;;;;;;;3.99;63.21;99611.57;105269;1259;73635;-55
2023/02/19 06:29:23;;;;;;;8.90;2.50;;;;;;;3.99;62.95;99608.93;105074;1259;60495;-55
2023/02/19 06:31:52;;;;;;;7.10;2.80;;;;;;;3.99;62.94;99607.73;105414;1259;60368;-56
2023/02/19 06:34:20;;;;;;;9.90;2.70;;;;;;;3.99;62.91;99609.65;105444;1259;66109;-55
2023/02/19 06:36:49;;;;;;;7.20;2.40;;;;;;;3.99;62.89;99616.59;105382;1259;71246;-54
2023/02/19 06:39:17;;;;;;;8.50;4.50;;;;;;;4.03;62.84;99618.59;105454;1256;65032;-55
2023/02/19 06:41:46;;;;;;;6.20;1.60;;;;;;;4.10;62.75;99611.52;105475;1257;60536;-54
2023/02/19 06:44:14;;;;;;;9.50;2.40;;;;;;;4.18;62.63;99615.33;105370;1254;61504;-56
2023/02/19 06:46:45;;;;;;;5.80;2.00;;;;;;;4.23;62.62;99616.21;105416;1259;66335;-55
2023/02/19 06:49:14;;;;;;;5.60;2.70;;;;;;;4.25;62.65;99619.59;105432;1257;62343;-56
2023/02/19 06:51:42;;;;;;;11.60;5.00;;;;;;;4.25;62.90;99621.46;105310;1257;64759;-53
2023/02/19 06:54:10;;;;;;;10.50;5.00;;;;;;;4.29;63.14;99627.66;105282;1257;60448;-54
2023/02/19 06:56:39;;;;;;;7.70;2.00;;;;;;;4.30;63.27;99625.13;105348;1259;60370;-54
2023/02/19 06:59:09;;;;;;;9.10;3.20;;;;;;;4.29;63.53;99626.08;105452;1259;65886;-53
2023/02/19 07:01:38;;;;;;;12.60;5.50;;;;;;;4.27;63.69;99626.88;105466;1257;61736;-54
2023/02/19 07:04:06;;;;;;;5.50;1.80;;;;;;;4.26;63.91;99626.58;105341;1257;65039;-55
2023/02/19 07:06:35;;;;;;;4.20;1.20;;;;;;;4.32;63.83;99622.41;105400;1255;60498;-55
2023/02/19 07:09:04;;;;;;;6.60;2.10;;;;;;;4.39;63.88;99614.66;105477;1256;60448;-56
2023/02/19 07:11:34;;;;;;;11.80;4.70;;;;;;;4.49;63.78;99612.41;105259;1259;66349;-55
2023/02/19 07:14:06;;;;;;;5.60;1.90;;;;;;;4.56;63.62;99610.41;105362;1259;61623;-54
2023/02/19 07:16:35;;;;;;;5.80;1.80;;;;;;;4.60;63.65;99608.38;105617;1254;64050;-55
2023/02/19 07:19:04;;;;;;;10.20;4.90;;;;;;;4.65;63.72;99607.02;105351;1255;60690;-56
2023/02/19 07:21:36;;;;;;;11.00;5.00;;;;;;;4.71;63.55;99608.05;105373;1256;60364;-54
2023/02/19 07:24:05;;;;;;;7.90;1.90;;;;;;;4.77;63.19;99607.46;105494;1256;65114;-56
2023/02/19 07:26:33;;;;;;;5.50;2.50;;;;;;;4.82;63.09;99612.10;105387;1257;71087;-54
2023/02/19 07:29:02;;;;;;;9.80;4.40;;;;;;;4.86;62.69;99619.31;105414;1257;73845;-54
2023/02/19 07:31:30;;;;;;;7.30;3.00;;;;;;;4.90;62.65;99618.31;105459;1254;61782;-55
2023/02/19 07:33:59;;;;;;;7.10;3.20;;;;;;;5.04;62.32;99616.17;105378;1257;61024;-54
2023/02/19 07:36:28;;;;;;;7.30;2.70;;;;;;;5.17;62.05;99615.06;105331;1259;74804;-57
2023/02/19 07:38:56;;;;;;;7.00;2.50;;;;;;;5.30;61.61;99612.63;105359;1257;71027;-56
2023/02/19 07:41:25;;;;;;;5.50;1.90;;;;;;;5.37;60.99;99623.94;105446;1257;74570;-56
2023/02/19 07:43:56;;;;;;;12.10;4.70;;;;;;;5.29;60.73;99623.48;105375;1257;61613;-54
2023/02/19 07:46:24;;;;;;;8.50;2.30;;;;;;;5.21;60.69;99632.05;105462;1256;61361;-54
2023/02/19 07:48:58;;;;;;;4.30;1.30;;;;;;;5.17;60.72;99625.50;105377;1258;64816;-54
2023/02/19 07:51:28;;;;;;;11.60;5.00;;;;;;;5.15;60.61;99631.95;105632;1256;62575;-54
2023/02/19 07:54:00;;;;;;;7.20;2.50;;;;;;;5.12;59.95;99629.34;105503;1257;64693;-55
2023/02/19 07:56:29;;;;;;;6.10;1.90;;;;;;;5.10;60.14;99626.51;105539;1257;60475;-53
2023/02/19 07:58:59;;;;;;;6.10;2.70;;;;;;;5.11;59.81;99630.14;105927;1257;61350;-54
2023/02/19 08:04:15;;;;;;;5.90;1.50;;;;;;;5.22;59.22;99631.23;105466;1259;62519;-56
2023/02/19 08:06:43;;;;;;;4.90;1.60;;;;;;;5.30;59.14;99624.43;105586;1259;73436;-53
2023/02/19 08:09:12;;;;;;;12.40;4.60;;;;;;;5.36;59.13;99626.94;105451;1256;60569;-54
2023/02/19 08:14:28;;;;;;;10.40;4.10;;;;;;;5.50;58.11;99634.17;105351;1255;65376;-53
2023/02/19 08:16:56;;;;;;;8.30;3.50;;;;;;;5.55;57.88;99627.94;105330;1257;71381;-52
2023/02/19 08:19:25;;;;;;;6.80;2.10;;;;;;;5.58;57.81;99636.39;105384;1258;73606;-53
2023/02/19 08:21:53;;;;;;;5.20;2.10;;;;;;;5.59;57.24;99637.49;105279;1259;60476;-54
2023/02/19 08:24:27;;;;;;;5.30;1.50;;;;;;;5.58;56.68;99644.25;105624;1259;60368;-63
2023/02/19 08:26:55;;;;;;;10.90;4.10;;;;;;;5.54;56.85;99637.54;105750;1256;74937;-62
2023/02/19 08:29:24;;;;;;;12.00;4.10;;;;;;;5.58;56.95;99636.38;105334;1256;71196;-63
2023/02/19 08:31:53;;;;;;;9.30;3.80;;;;;;;5.69;57.09;99644.16;105421;1257;73373;-65
2023/02/19 08:34:21;;;;;;;9.70;3.70;;;;;;;5.79;56.82;99640.48;105942;1257;60550;-63
2023/02/19 08:36:50;;;;;;;6.50;2.10;;;;;;;5.88;56.91;99646.30;105887;1255;60453;-66
2023/02/19 08:39:19;;;;;;;10.10;3.70;;;;;;;5.93;56.82;99657.09;105998;1259;74545;-65
2023/02/19 08:41:49;;;;;;;5.60;2.00;;;;;;;5.91;56.84;99662.27;106248;1253;71146;-64
2023/02/19 08:44:18;;;;;;;7.00;3.30;;;;;;;5.81;57.02;99650.63;106310;1251;73167;-63
2023/02/19 08:46:52;;;;;;;8.90;3.30;;;;;;;5.81;56.32;99658.30;106189;1250;62197;-63
2023/02/19 08:49:24;;;;;;;4.60;1.50;;;;;;;5.85;56.43;99653.27;106221;1250;61147;-66
2023/02/19 08:51:52;;;;;;;5.40;1.80;;;;;;;5.87;56.11;99656.24;106232;1250;74225;-60
2023/02/19 08:54:20;;;;;;;6.30;2.30;;;;;;;5.81;56.20;99656.58;105779;1250;71276;-62
2023/02/19 08:56:48;;;;;;;9.20;3.80;;;;;;;5.72;56.62;99653.51;106133;1250;73527;-63
2023/02/19 08:59:19;;;;;;;5.40;1.70;;;;;;;5.71;56.65;99650.64;106120;1252;60564;-62
2023/02/19 09:01:47;;;;;;;8.40;3.70;;;;;;;5.72;55.97;99649.14;105665;1251;61226;-64
2023/02/19 09:04:16;;;;;;;10.20;3.70;;;;;;;5.71;55.55;99645.07;105843;1256;74856;-61
2023/02/19 09:06:44;;;;;;;10.20;3.50;;;;;;;5.72;55.86;99644.44;105763;1254;71238;-63
2023/02/19 09:09:12;;;;;;;5.90;1.70;;;;;;;5.80;55.75;99642.69;106387;1254;71728;-62
2023/02/19 09:11:41;;;;;;;8.60;3.90;;;;;;;5.83;55.67;99643.16;105774;1251;61589;-60
2023/02/19 09:14:10;;;;;;;10.40;4.60;;;;;;;5.84;55.67;99633.70;105721;1253;61264;-55
2023/02/19 09:16:39;;;;;;;10.10;3.80;;;;;;;5.87;55.29;99634.88;105895;1251;74771;-54
2023/02/19 09:19:08;;;;;;;10.70;4.00;;;;;;;5.88;55.27;99655.68;105820;1253;70252;-55
2023/02/19 09:21:36;;;;;;;4.40;1.50;;;;;;;5.82;54.92;99647.75;105876;1255;73612;-55
2023/02/19 09:24:05;;;;;;;7.10;3.20;;;;;;;5.77;54.94;99652.30;105774;1250;61164;-55
2023/02/19 09:26:34;;;;;;;8.40;3.50;;;;;;;5.73;54.55;99653.41;105502;1251;61017;-57
2023/02/19 09:29:05;;;;;;;8.90;3.20;;;;;;;5.66;54.19;99656.56;106219;1256;74784;-56
2023/02/19 09:31:33;;;;;;;8.30;3.50;;;;;;;5.55;54.25;99650.21;105757;1251;71268;-58
2023/02/19 09:34:02;;;;;;;5.30;1.90;;;;;;;5.49;54.55;99653.93;105544;1250;73483;-55
2023/02/19 09:36:32;;;;;;;7.30;3.10;;;;;;;5.46;54.58;99656.55;105729;1256;60592;-56
2023/02/19 09:39:00;;;;;;;6.00;1.70;;;;;;;5.44;54.78;99656.71;105725;1251;61233;-56
2023/02/19 09:41:30;;;;;;;10.80;4.00;;;;;;;5.46;55.02;99660.00;105590;1250;74829;-56
2023/02/19 09:44:01;;;;;;;6.30;3.00;;;;;;;5.48;54.44;99673.52;105562;1256;70291;-56
2023/02/19 09:46:31;;;;;;;3.90;1.10;;;;;;;5.46;54.66;99656.42;105593;1256;73709;-56
2023/02/19 09:49:12;;;;;;;7.80;3.40;;;;;;;5.49;54.48;99662.96;105782;1253;60510;-54
2023/02/19 09:51:44;;;;;;;6.80;2.30;;;;;;;5.58;53.98;99653.96;105602;1251;60453;-54
2023/02/19 09:54:22;;;;;;;4.20;1.20;;;;;;;5.62;53.84;99652.16;105860;1254;74555;-55
2023/02/19 09:56:50;;;;;;;;;;;;;;;5.57;53.62;99637.85;106058;1251;62696;-54
2023/02/19 09:59:22;;;;;;;6.70;1.70;;;;;;;5.56;53.53;99616.55;105664;1253;73622;-57
2023/02/19 10:02:02;;;;;;;9.90;3.00;;;;;;;5.53;53.44;99614.29;105748;1254;60967;-55
2023/02/19 10:04:30;;;;;;;6.70;1.90;;;;;;;5.50;53.38;99615.39;105645;1256;60444;-56
2023/02/19 10:07:02;;;;;;;11.70;2.80;;;;;;;5.49;53.66;99603.47;105737;1256;74774;-56
2023/02/19 10:09:30;;;;;;;9.30;3.60;;;;;;;5.55;53.78;99599.75;105586;1251;70649;-56
2023/02/19 10:11:59;;;;;;;6.80;1.90;;;;;;;5.64;53.85;99595.45;105628;1256;73519;-56
2023/02/19 10:14:32;;;;;;;5.90;1.60;;;;;;;5.66;53.77;99600.15;105747;1251;60435;-57
2023/02/19 10:17:03;;;;;;;10.50;3.60;;;;;;;5.69;53.59;99595.41;105786;1256;60467;-57
2023/02/19 10:19:32;;;;;;;10.30;3.70;;;;;;;5.72;53.22;99592.75;105804;1251;73742;-56
2023/02/19 10:22:01;;;;;;;9.30;3.40;;;;;;;5.78;52.99;99586.55;105758;1256;71494;-56
2023/02/19 10:24:29;;;;;;;5.40;1.90;;;;;;;5.84;52.85;99595.73;105715;1255;73426;-58
2023/02/19 10:26:58;;;;;;;9.90;3.80;;;;;;;5.88;52.57;99590.91;105705;1256;60574;-57
2023/02/19 10:29:26;;;;;;;3.70;1.40;;;;;;;5.90;52.30;99590.95;105673;1250;61364;-58
2023/02/19 10:32:22;;;;;;;13.70;3.90;;;;;;;5.89;52.18;99587.02;105747;1254;74802;-58
2023/02/19 10:35:14;;;;;;;5.50;1.30;;;;;;;5.87;51.91;99581.44;105600;1257;62484;-55
2023/02/19 10:37:46;;;;;;;9.40;3.50;;;;;;;5.90;52.02;99577.89;105697;1251;64088;-56
2023/02/19 10:40:22;;;;;;;11.60;1.30;;;;;;;6.00;51.72;99571.26;105697;1252;60761;-56
2023/02/19 10:42:58;;;;;;;3.80;1.20;;;;;;;6.10;51.27;99565.83;105553;1255;61394;-56
2023/02/19 10:45:29;;;;;;;;;;;;;;;6.18;50.87;99553.98;106127;1255;64719;-55
2023/02/19 10:47:57;;;;;;;6.10;1.40;;;;;;;6.21;50.01;99554.95;105624;1257;62610;-55
2023/02/19 10:50:38;;;;;;;8.70;3.10;;;;;;;6.23;49.42;99552.83;105504;1254;65126;-56
2023/02/19 10:53:07;;;;;;;8.60;1.30;;;;;;;6.24;48.72;99540.21;105605;1259;60486;-55
2023/02/19 10:55:37;;;;;;;5.30;1.30;;;;;;;6.21;48.76;99527.77;105326;1258;60579;-56
2023/02/19 10:58:26;;;;;;;7.80;2.70;;;;;;;6.21;49.10;99524.79;107490;1255;66379;-55
2023/02/19 11:01:13;;;;;;;9.10;2.80;;;;;;;6.21;48.95;99526.85;105676;1254;62605;-55
2023/02/19 11:03:41;;;;;;;12.30;3.10;;;;;;;6.19;48.99;99520.73;105626;1256;65158;-56
2023/02/19 11:06:10;;;;;;;6.80;2.90;;;;;;;6.19;49.29;99516.04;105576;1256;60542;-56
2023/02/19 11:08:46;;;;;;;9.50;2.70;;;;;;;6.23;49.44;99504.06;105539;1252;61784;-56
2023/02/19 11:11:26;;;;;;;8.20;3.00;;;;;;;6.18;49.36;99497.67;105684;1255;65022;-58
2023/02/19 11:13:56;;;;;;;10.90;3.30;;;;;;;6.14;49.40;99496.54;105525;1256;61467;-54
2023/02/19 11:16:42;;;;;;;3.70;1.10;;;;;;;6.14;49.65;99490.80;105569;1255;73728;-60
2023/02/19 11:19:42;;;;;;;4.50;1.00;;;;;;;6.18;48.87;99491.42;105626;1256;60905;-57
2023/02/19 11:22:28;;;;;;;3.50;1.10;;;;;;;6.20;48.52;99498.07;105567;1253;60486;-57
2023/02/19 11:25:09;;;;;;;6.00;1.20;;;;;;;6.20;48.26;99488.30;105590;1256;65907;-55
2023/02/19 11:28:08;;;;;;;7.00;2.50;;;;;;;6.23;48.48;99485.06;105658;1259;61692;-56
2023/02/19 11:30:43;;;;;;;9.50;3.00;;;;;;;6.30;48.89;99486.64;105628;1256;64965;-56
2023/02/19 11:33:15;;;;;;;4.50;1.20;;;;;;;6.34;47.89;99481.50;106404;1253;60595;-56
2023/02/19 11:35:44;;;;;;;9.30;2.50;;;;;;;6.33;47.05;99482.73;105774;1254;60362;-55
2023/02/19 11:38:15;;;;;;;10.00;2.90;;;;;;;6.30;46.31;99481.95;105593;1257;66254;-58
2023/02/19 11:41:09;;;;;;;4.60;0.90;;;;;;;6.26;46.23;99477.77;105744;1259;62695;-55
2023/02/19 11:43:55;;;;;;;7.20;2.80;;;;;;;6.19;46.54;99480.16;105996;1258;64956;-56
2023/02/19 11:46:48;;;;;;;9.00;2.70;;;;;;;6.20;47.06;99478.05;105871;1257;60475;-55
2023/02/19 11:49:39;;;;;;;10.10;3.30;;;;;;;6.22;47.23;99484.12;105914;1254;60441;-55
2023/02/19 11:52:19;;;;;;;7.60;3.10;;;;;;;6.10;47.43;99486.45;105607;1255;65908;-57
2023/02/19 11:55:15;;;;;;;8.20;3.00;;;;;;;6.01;47.83;99481.71;105774;1255;62942;-56
2023/02/19 11:57:51;;;;;;;7.20;2.00;;;;;;;6.05;48.03;99478.10;105642;1254;64954;-55
2023/02/19 12:00:25;;;;;;;5.80;1.70;;;;;;;6.02;47.67;99488.73;105685;1255;60444;-55
2023/02/19 12:03:25;;;;;;;7.60;2.90;;;;;;;6.08;47.16;99495.16;105724;1250;60547;-55
2023/02/19 12:06:00;;;;;;;3.30;1.00;;;;;;;6.09;47.03;99492.05;105709;1256;66183;-55
2023/02/19 12:09:00;;;;;;;8.10;3.10;;;;;;;6.07;47.17;99494.64;105623;1254;62781;-56
2023/02/19 12:11:35;;;;;;;9.80;2.90;;;;;;;6.07;46.78;99496.74;105519;1257;65079;-55
2023/02/19 12:14:18;;;;;;;5.20;2.50;;;;;;;6.09;46.73;99497.65;105840;1251;60441;-55
2023/02/19 12:16:57;;;;;;;7.10;2.70;;;;;;;6.10;46.35;99501.07;105780;1257;60441;-55
2023/02/19 12:19:25;;;;;;;3.20;1.20;;;;;;;6.09;46.23;99496.80;105685;1254;65904;-56
2023/02/19 12:22:15;;;;;;;7.80;2.90;;;;;;;6.10;46.54;99492.55;105777;1254;62676;-55
2023/02/19 12:24:50;;;;;;;8.60;2.60;;;;;;;6.13;46.84;99494.17;105618;1266;65054;-57